sensor_id;sensor_type;location;lat;lon;timestamp;P1;durP1;ratioP1;P2;durP2;ratioP2
10096;SDS011;5087;42.662;23.466;2023-03-01T00:00:50;0.00;;;0.00;;
10096;SDS011;5087;42.662;23.466;2023-03-01T00:03:17;0.00;;;0.00;;
10096;SDS011;5087;42.662;23.466;2023-03-01T00:05:44;0.00;;;0.00;;
10096;SDS011;5087;42.662;23.466;2023-03-01T00:08:11;0.00;;;0.00;;
10096;SDS011;5087;42.662;23.466;2023-03-01T00:10:38;0.10;;;0.10;;
10096;SDS011;5087;42.662;23.466;2023-03-01T00:46:51;0.00;;;0.00;;
10096;SDS011;5087;42.662;23.466;2023-03-01T00:49:18;0.00;;;0.00;;
10096;SDS011;5087;42.662;23.466;2023-03-01T00:51:45;0.00;;;0.00;;
10096;SDS011;5087;42.662;23.466;2023-03-01T00:54:13;0.00;;;0.00;;
10096;SDS011;5087;42.662;23.466;2023-03-01T00:56:40;0.00;;;0.00;;
10096;SDS011;5087;42.662;23.466;2023-03-01T00:59:09;0.00;;;0.00;;
10096;SDS011;5087;42.662;23.466;2023-03-01T01:01:38;0.00;;;0.00;;
10096;SDS011;5087;42.662;23.466;2023-03-01T01:04:08;0.00;;;0.00;;
10096;SDS011;5087;42.662;23.466;2023-03-01T01:06:39;0.00;;;0.00;;
10096;SDS011;5087;42.662;23.466;2023-03-01T01:09:12;0.00;;;0.00;;
10096;SDS011;5087;42.662;23.466;2023-03-01T01:11:44;0.00;;;0.00;;
10096;SDS011;5087;42.662;23.466;2023-03-01T01:14:14;0.00;;;0.00;;
10096;SDS011;5087;42.662;23.466;2023-03-01T01:16:41;0.00;;;0.00;;
10096;SDS011;5087;42.662;23.466;2023-03-01T01:19:13;0.00;;;0.00;;
10096;SDS011;5087;42.662;23.466;2023-03-01T01:21:41;0.00;;;0.00;;
10096;SDS011;5087;42.662;23.466;2023-03-01T01:24:11;0.00;;;0.00;;
10096;SDS011;5087;42.662;23.466;2023-03-01T01:26:40;0.00;;;0.00;;
10096;SDS011;5087;42.662;23.466;2023-03-01T01:29:07;0.00;;;0.00;;
10096;SDS011;5087;42.662;23.466;2023-03-01T01:31:37;0.00;;;0.00;;
10096;SDS011;5087;42.662;23.466;2023-03-01T01:34:10;0.00;;;0.00;;
10096;SDS011;5087;42.662;23.466;2023-03-01T01:36:44;0.00;;;0.00;;
10096;SDS011;5087;42.662;23.466;2023-03-01T01:39:15;0.00;;;0.00;;
10096;SDS011;5087;42.662;23.466;2023-03-01T01:41:42;0.00;;;0.00;;
10096;SDS011;5087;42.662;23.466;2023-03-01T01:44:10;0.00;;;0.00;;
10096;SDS011;5087;42.662;23.466;2023-03-01T01:46:44;0.00;;;0.00;;
10096;SDS011;5087;42.662;23.466;2023-03-01T01:49:21;0.00;;;0.00;;
10096;SDS011;5087;42.662;23.466;2023-03-01T01:51:53;0.00;;;0.00;;
10096;SDS011;5087;42.662;23.466;2023-03-01T01:54:38;0.00;;;0.00;;
10096;SDS011;5087;42.662;23.466;2023-03-01T01:57:11;0.00;;;0.00;;
10096;SDS011;5087;42.662;23.466;2023-03-01T01:59:41;0.00;;;0.00;;
10096;SDS011;5087;42.662;23.466;2023-03-01T02:02:14;0.00;;;0.00;;
10096;SDS011;5087;42.662;23.466;2023-03-01T02:04:43;0.00;;;0.00;;
10096;SDS011;5087;42.662;23.466;2023-03-01T02:07:16;0.00;;;0.00;;
10096;SDS011;5087;42.662;23.466;2023-03-01T02:09:45;0.23;;;0.23;;
10096;SDS011;5087;42.662;23.466;2023-03-01T02:12:17;0.00;;;0.00;;
10096;SDS011;5087;42.662;23.466;2023-03-01T02:14:47;0.00;;;0.00;;
10096;SDS011;5087;42.662;23.466;2023-03-01T02:17:17;0.00;;;0.00;;
10096;SDS011;5087;42.662;23.466;2023-03-01T02:19:50;0.00;;;0.00;;
10096;SDS011;5087;42.662;23.466;2023-03-01T02:22:32;0.10;;;0.10;;
10096;SDS011;5087;42.662;23.466;2023-03-01T02:25:04;0.00;;;0.00;;
10096;SDS011;5087;42.662;23.466;2023-03-01T02:27:42;0.13;;;0.13;;
10096;SDS011;5087;42.662;23.466;2023-03-01T02:30:19;0.00;;;0.00;;
10096;SDS011;5087;42.662;23.466;2023-03-01T02:32:49;0.00;;;0.00;;
10096;SDS011;5087;42.662;23.466;2023-03-01T02:35:16;0.03;;;0.03;;
10096;SDS011;5087;42.662;23.466;2023-03-01T02:37:45;0.00;;;0.00;;
10096;SDS011;5087;42.662;23.466;2023-03-01T02:40:15;0.00;;;0.00;;
10096;SDS011;5087;42.662;23.466;2023-03-01T02:42:47;0.00;;;0.00;;
10096;SDS011;5087;42.662;23.466;2023-03-01T02:45:23;0.00;;;0.00;;
10096;SDS011;5087;42.662;23.466;2023-03-01T02:47:53;0.10;;;0.10;;
10096;SDS011;5087;42.662;23.466;2023-03-01T02:50:35;0.00;;;0.00;;
10096;SDS011;5087;42.662;23.466;2023-03-01T02:53:21;0.00;;;0.00;;
10096;SDS011;5087;42.662;23.466;2023-03-01T02:55:54;0.00;;;0.00;;
10096;SDS011;5087;42.662;23.466;2023-03-01T02:58:26;0.00;;;0.00;;
10096;SDS011;5087;42.662;23.466;2023-03-01T03:00:55;0.10;;;0.10;;
10096;SDS011;5087;42.662;23.466;2023-03-01T03:03:27;0.00;;;0.00;;
10096;SDS011;5087;42.662;23.466;2023-03-01T03:05:54;0.00;;;0.00;;
10096;SDS011;5087;42.662;23.466;2023-03-01T03:08:22;0.00;;;0.00;;
10096;SDS011;5087;42.662;23.466;2023-03-01T03:10:50;0.00;;;0.00;;
10096;SDS011;5087;42.662;23.466;2023-03-01T03:13:18;0.00;;;0.00;;
10096;SDS011;5087;42.662;23.466;2023-03-01T03:15:47;0.00;;;0.00;;
10096;SDS011;5087;42.662;23.466;2023-03-01T03:18:16;0.00;;;0.00;;
10096;SDS011;5087;42.662;23.466;2023-03-01T03:20:46;0.10;;;0.10;;
10096;SDS011;5087;42.662;23.466;2023-03-01T03:23:18;0.00;;;0.00;;
10096;SDS011;5087;42.662;23.466;2023-03-01T03:25:48;0.00;;;0.00;;
10096;SDS011;5087;42.662;23.466;2023-03-01T03:28:16;0.00;;;0.00;;
10096;SDS011;5087;42.662;23.466;2023-03-01T03:30:44;0.00;;;0.00;;
10096;SDS011;5087;42.662;23.466;2023-03-01T03:33:15;0.00;;;0.00;;
10096;SDS011;5087;42.662;23.466;2023-03-01T03:35:45;0.00;;;0.00;;
10096;SDS011;5087;42.662;23.466;2023-03-01T03:38:16;0.03;;;0.03;;
10096;SDS011;5087;42.662;23.466;2023-03-01T03:40:46;0.00;;;0.00;;
10096;SDS011;5087;42.662;23.466;2023-03-01T03:43:15;0.00;;;0.00;;
10096;SDS011;5087;42.662;23.466;2023-03-01T03:45:44;0.00;;;0.00;;
10096;SDS011;5087;42.662;23.466;2023-03-01T03:48:11;0.00;;;0.00;;
10096;SDS011;5087;42.662;23.466;2023-03-01T03:50:47;0.10;;;0.10;;
10096;SDS011;5087;42.662;23.466;2023-03-01T03:53:15;0.47;;;0.47;;
10096;SDS011;5087;42.662;23.466;2023-03-01T03:55:46;0.10;;;0.10;;
10096;SDS011;5087;42.662;23.466;2023-03-01T03:58:14;0.00;;;0.00;;
10096;SDS011;5087;42.662;23.466;2023-03-01T04:00:45;0.00;;;0.00;;
10096;SDS011;5087;42.662;23.466;2023-03-01T04:03:16;0.00;;;0.00;;
10096;SDS011;5087;42.662;23.466;2023-03-01T04:05:47;0.00;;;0.00;;
10096;SDS011;5087;42.662;23.466;2023-03-01T04:08:16;0.00;;;0.00;;
10096;SDS011;5087;42.662;23.466;2023-03-01T04:10:45;0.00;;;0.00;;
10096;SDS011;5087;42.662;23.466;2023-03-01T04:13:14;0.00;;;0.00;;
10096;SDS011;5087;42.662;23.466;2023-03-01T04:15:45;0.00;;;0.00;;
10096;SDS011;5087;42.662;23.466;2023-03-01T04:18:13;0.00;;;0.00;;
10096;SDS011;5087;42.662;23.466;2023-03-01T04:20:44;0.00;;;0.00;;
10096;SDS011;5087;42.662;23.466;2023-03-01T04:23:14;0.10;;;0.10;;
10096;SDS011;5087;42.662;23.466;2023-03-01T04:25:46;0.00;;;0.00;;
10096;SDS011;5087;42.662;23.466;2023-03-01T04:28:20;0.00;;;0.00;;
10096;SDS011;5087;42.662;23.466;2023-03-01T04:30:52;0.00;;;0.00;;
10096;SDS011;5087;42.662;23.466;2023-03-01T04:33:25;0.00;;;0.00;;
10096;SDS011;5087;42.662;23.466;2023-03-01T04:35:54;0.00;;;0.00;;
10096;SDS011;5087;42.662;23.466;2023-03-01T04:38:24;0.00;;;0.00;;
10096;SDS011;5087;42.662;23.466;2023-03-01T04:40:54;0.00;;;0.00;;
10096;SDS011;5087;42.662;23.466;2023-03-01T04:43:21;0.00;;;0.00;;
10096;SDS011;5087;42.662;23.466;2023-03-01T04:45:48;0.00;;;0.00;;
10096;SDS011;5087;42.662;23.466;2023-03-01T04:48:16;0.00;;;0.00;;
10096;SDS011;5087;42.662;23.466;2023-03-01T04:50:43;0.00;;;0.00;;
10096;SDS011;5087;42.662;23.466;2023-03-01T04:53:15;0.47;;;0.30;;
10096;SDS011;5087;42.662;23.466;2023-03-01T04:55:45;0.00;;;0.00;;
10096;SDS011;5087;42.662;23.466;2023-03-01T04:58:12;0.00;;;0.00;;
10096;SDS011;5087;42.662;23.466;2023-03-01T05:00:39;0.00;;;0.00;;
10096;SDS011;5087;42.662;23.466;2023-03-01T05:03:07;0.00;;;0.00;;
10096;SDS011;5087;42.662;23.466;2023-03-01T05:05:35;0.00;;;0.00;;
10096;SDS011;5087;42.662;23.466;2023-03-01T05:08:05;0.00;;;0.00;;
10096;SDS011;5087;42.662;23.466;2023-03-01T05:10:37;0.00;;;0.00;;
10096;SDS011;5087;42.662;23.466;2023-03-01T05:13:05;0.10;;;0.10;;
10096;SDS011;5087;42.662;23.466;2023-03-01T05:15:33;0.00;;;0.00;;
10096;SDS011;5087;42.662;23.466;2023-03-01T05:18:01;0.00;;;0.00;;
10096;SDS011;5087;42.662;23.466;2023-03-01T05:20:29;0.00;;;0.00;;
10096;SDS011;5087;42.662;23.466;2023-03-01T05:22:57;0.00;;;0.00;;
10096;SDS011;5087;42.662;23.466;2023-03-01T05:25:30;0.33;;;0.30;;
10096;SDS011;5087;42.662;23.466;2023-03-01T05:28:02;0.00;;;0.00;;
10096;SDS011;5087;42.662;23.466;2023-03-01T05:30:31;0.37;;;0.37;;
10096;SDS011;5087;42.662;23.466;2023-03-01T05:33:04;0.10;;;0.10;;
10096;SDS011;5087;42.662;23.466;2023-03-01T05:35:39;2.13;;;0.73;;
10096;SDS011;5087;42.662;23.466;2023-03-01T05:38:07;0.00;;;0.00;;
10096;SDS011;5087;42.662;23.466;2023-03-01T05:40:38;0.13;;;0.13;;
10096;SDS011;5087;42.662;23.466;2023-03-01T05:43:06;0.30;;;0.30;;
10096;SDS011;5087;42.662;23.466;2023-03-01T05:45:37;0.00;;;0.00;;
10096;SDS011;5087;42.662;23.466;2023-03-01T05:48:06;0.00;;;0.00;;
10096;SDS011;5087;42.662;23.466;2023-03-01T05:50:35;3.50;;;2.00;;
10096;SDS011;5087;42.662;23.466;2023-03-01T05:53:05;0.37;;;0.37;;
10096;SDS011;5087;42.662;23.466;2023-03-01T05:55:36;0.00;;;0.00;;
10096;SDS011;5087;42.662;23.466;2023-03-01T05:58:04;0.00;;;0.00;;
10096;SDS011;5087;42.662;23.466;2023-03-01T06:00:33;0.00;;;0.00;;
10096;SDS011;5087;42.662;23.466;2023-03-01T06:03:02;0.00;;;0.00;;
10096;SDS011;5087;42.662;23.466;2023-03-01T06:05:30;0.77;;;0.77;;
10096;SDS011;5087;42.662;23.466;2023-03-01T06:08:02;0.00;;;0.00;;
10096;SDS011;5087;42.662;23.466;2023-03-01T06:10:36;0.00;;;0.00;;
10096;SDS011;5087;42.662;23.466;2023-03-01T06:13:04;0.00;;;0.00;;
10096;SDS011;5087;42.662;23.466;2023-03-01T06:15:31;0.00;;;0.00;;
10096;SDS011;5087;42.662;23.466;2023-03-01T06:18:02;0.00;;;0.00;;
10096;SDS011;5087;42.662;23.466;2023-03-01T06:20:32;0.00;;;0.00;;
10096;SDS011;5087;42.662;23.466;2023-03-01T06:23:03;0.00;;;0.00;;
10096;SDS011;5087;42.662;23.466;2023-03-01T06:25:30;0.00;;;0.00;;
10096;SDS011;5087;42.662;23.466;2023-03-01T06:27:57;0.00;;;0.00;;
10096;SDS011;5087;42.662;23.466;2023-03-01T06:30:27;0.00;;;0.00;;
10096;SDS011;5087;42.662;23.466;2023-03-01T06:32:55;0.57;;;0.57;;
10096;SDS011;5087;42.662;23.466;2023-03-01T06:35:28;0.00;;;0.00;;
10096;SDS011;5087;42.662;23.466;2023-03-01T06:37:56;0.00;;;0.00;;
10096;SDS011;5087;42.662;23.466;2023-03-01T06:40:24;0.00;;;0.00;;
10096;SDS011;5087;42.662;23.466;2023-03-01T06:42:52;0.13;;;0.13;;
10096;SDS011;5087;42.662;23.466;2023-03-01T06:45:22;0.00;;;0.00;;
10096;SDS011;5087;42.662;23.466;2023-03-01T06:47:52;0.00;;;0.00;;
10096;SDS011;5087;42.662;23.466;2023-03-01T06:50:22;0.00;;;0.00;;
10096;SDS011;5087;42.662;23.466;2023-03-01T06:52:57;0.00;;;0.00;;
10096;SDS011;5087;42.662;23.466;2023-03-01T06:55:25;0.00;;;0.00;;
10096;SDS011;5087;42.662;23.466;2023-03-01T06:57:54;0.00;;;0.00;;
10096;SDS011;5087;42.662;23.466;2023-03-01T07:00:25;0.00;;;0.00;;
10096;SDS011;5087;42.662;23.466;2023-03-01T07:02:53;0.00;;;0.00;;
10096;SDS011;5087;42.662;23.466;2023-03-01T07:05:21;0.00;;;0.00;;
10096;SDS011;5087;42.662;23.466;2023-03-01T07:07:49;0.00;;;0.00;;
10096;SDS011;5087;42.662;23.466;2023-03-01T07:10:17;0.37;;;0.37;;
10096;SDS011;5087;42.662;23.466;2023-03-01T07:12:45;1.40;;;1.40;;
10096;SDS011;5087;42.662;23.466;2023-03-01T07:15:12;0.87;;;0.87;;
10096;SDS011;5087;42.662;23.466;2023-03-01T07:17:40;0.00;;;0.00;;
10096;SDS011;5087;42.662;23.466;2023-03-01T07:20:10;0.00;;;0.00;;
10096;SDS011;5087;42.662;23.466;2023-03-01T07:22:39;0.00;;;0.00;;
10096;SDS011;5087;42.662;23.466;2023-03-01T07:25:07;0.67;;;0.67;;
10096;SDS011;5087;42.662;23.466;2023-03-01T07:27:40;0.00;;;0.00;;
10096;SDS011;5087;42.662;23.466;2023-03-01T07:30:08;0.00;;;0.00;;
10096;SDS011;5087;42.662;23.466;2023-03-01T07:32:36;0.30;;;0.30;;
10096;SDS011;5087;42.662;23.466;2023-03-01T07:35:03;0.00;;;0.00;;
10096;SDS011;5087;42.662;23.466;2023-03-01T07:37:34;0.00;;;0.00;;
10096;SDS011;5087;42.662;23.466;2023-03-01T07:40:01;0.20;;;0.20;;
10096;SDS011;5087;42.662;23.466;2023-03-01T07:42:32;0.10;;;0.10;;
10096;SDS011;5087;42.662;23.466;2023-03-01T07:45:03;0.00;;;0.00;;
10096;SDS011;5087;42.662;23.466;2023-03-01T07:47:32;1.60;;;1.50;;
10096;SDS011;5087;42.662;23.466;2023-03-01T07:49:59;0.07;;;0.07;;
10096;SDS011;5087;42.662;23.466;2023-03-01T07:52:28;0.10;;;0.10;;
10096;SDS011;5087;42.662;23.466;2023-03-01T07:54:55;0.20;;;0.20;;
10096;SDS011;5087;42.662;23.466;2023-03-01T07:57:23;0.00;;;0.00;;
10096;SDS011;5087;42.662;23.466;2023-03-01T07:59:53;0.10;;;0.10;;
10096;SDS011;5087;42.662;23.466;2023-03-01T08:02:27;0.00;;;0.00;;
10096;SDS011;5087;42.662;23.466;2023-03-01T08:04:54;0.00;;;0.00;;
10096;SDS011;5087;42.662;23.466;2023-03-01T08:07:21;0.30;;;0.30;;
10096;SDS011;5087;42.662;23.466;2023-03-01T08:09:49;0.00;;;0.00;;
10096;SDS011;5087;42.662;23.466;2023-03-01T08:12:16;0.10;;;0.10;;
10096;SDS011;5087;42.662;23.466;2023-03-01T08:14:43;0.10;;;0.10;;
10096;SDS011;5087;42.662;23.466;2023-03-01T08:17:10;0.10;;;0.10;;
10096;SDS011;5087;42.662;23.466;2023-03-01T08:19:42;0.10;;;0.10;;
10096;SDS011;5087;42.662;23.466;2023-03-01T08:22:09;0.10;;;0.10;;
10096;SDS011;5087;42.662;23.466;2023-03-01T08:24:39;0.20;;;0.20;;
10096;SDS011;5087;42.662;23.466;2023-03-01T08:27:14;0.20;;;0.20;;
10096;SDS011;5087;42.662;23.466;2023-03-01T08:29:44;1.27;;;1.27;;
10096;SDS011;5087;42.662;23.466;2023-03-01T08:32:28;0.30;;;0.30;;
10096;SDS011;5087;42.662;23.466;2023-03-01T08:34:57;0.50;;;0.50;;
10096;SDS011;5087;42.662;23.466;2023-03-01T08:37:24;0.30;;;0.30;;
10096;SDS011;5087;42.662;23.466;2023-03-01T08:39:53;0.20;;;0.20;;
10096;SDS011;5087;42.662;23.466;2023-03-01T08:42:20;0.20;;;0.20;;
10096;SDS011;5087;42.662;23.466;2023-03-01T08:44:47;0.30;;;0.30;;
10096;SDS011;5087;42.662;23.466;2023-03-01T08:47:15;0.40;;;0.40;;
10096;SDS011;5087;42.662;23.466;2023-03-01T08:49:44;0.53;;;0.53;;
10096;SDS011;5087;42.662;23.466;2023-03-01T08:52:13;0.40;;;0.40;;
10096;SDS011;5087;42.662;23.466;2023-03-01T08:54:41;0.47;;;0.47;;
10096;SDS011;5087;42.662;23.466;2023-03-01T08:57:08;0.50;;;0.50;;
10096;SDS011;5087;42.662;23.466;2023-03-01T08:59:35;0.30;;;0.30;;
10096;SDS011;5087;42.662;23.466;2023-03-01T09:02:03;1.00;;;1.00;;
10096;SDS011;5087;42.662;23.466;2023-03-01T09:04:30;0.40;;;0.40;;
10096;SDS011;5087;42.662;23.466;2023-03-01T09:06:58;0.30;;;0.30;;
10096;SDS011;5087;42.662;23.466;2023-03-01T09:09:29;0.30;;;0.30;;
10096;SDS011;5087;42.662;23.466;2023-03-01T09:11:57;0.30;;;0.30;;
10096;SDS011;5087;42.662;23.466;2023-03-01T09:14:24;0.53;;;0.53;;
10096;SDS011;5087;42.662;23.466;2023-03-01T09:16:51;0.50;;;0.50;;
10096;SDS011;5087;42.662;23.466;2023-03-01T09:19:19;0.20;;;0.20;;
10096;SDS011;5087;42.662;23.466;2023-03-01T09:21:46;0.20;;;0.20;;
10096;SDS011;5087;42.662;23.466;2023-03-01T09:24:19;0.30;;;0.30;;
10096;SDS011;5087;42.662;23.466;2023-03-01T09:26:49;0.30;;;0.30;;
10096;SDS011;5087;42.662;23.466;2023-03-01T09:29:16;0.50;;;0.50;;
10096;SDS011;5087;42.662;23.466;2023-03-01T09:31:44;0.40;;;0.40;;
10096;SDS011;5087;42.662;23.466;2023-03-01T09:34:15;0.40;;;0.40;;
10096;SDS011;5087;42.662;23.466;2023-03-01T09:36:48;0.50;;;0.50;;
10096;SDS011;5087;42.662;23.466;2023-03-01T09:39:17;0.57;;;0.57;;
10096;SDS011;5087;42.662;23.466;2023-03-01T09:41:52;0.60;;;0.60;;
10096;SDS011;5087;42.662;23.466;2023-03-01T09:44:31;0.70;;;0.70;;
10096;SDS011;5087;42.662;23.466;2023-03-01T09:47:02;0.60;;;0.60;;
10096;SDS011;5087;42.662;23.466;2023-03-01T09:49:31;0.60;;;0.60;;
10096;SDS011;5087;42.662;23.466;2023-03-01T09:52:03;0.73;;;0.73;;
10096;SDS011;5087;42.662;23.466;2023-03-01T09:54:40;0.80;;;0.80;;
10096;SDS011;5087;42.662;23.466;2023-03-01T09:57:14;0.60;;;0.60;;
10096;SDS011;5087;42.662;23.466;2023-03-01T09:59:49;0.70;;;0.70;;
10096;SDS011;5087;42.662;23.466;2023-03-01T10:02:38;0.90;;;0.90;;
10096;SDS011;5087;42.662;23.466;2023-03-01T10:05:14;0.70;;;0.70;;
10096;SDS011;5087;42.662;23.466;2023-03-01T10:07:58;0.60;;;0.60;;
10096;SDS011;5087;42.662;23.466;2023-03-01T10:10:43;0.80;;;0.80;;
10096;SDS011;5087;42.662;23.466;2023-03-01T10:13:15;1.20;;;1.20;;
10096;SDS011;5087;42.662;23.466;2023-03-01T10:15:47;1.00;;;1.00;;
10096;SDS011;5087;42.662;23.466;2023-03-01T10:18:21;1.10;;;1.10;;
10096;SDS011;5087;42.662;23.466;2023-03-01T10:20:52;1.50;;;1.50;;
10096;SDS011;5087;42.662;23.466;2023-03-01T10:23:22;1.30;;;1.30;;
10096;SDS011;5087;42.662;23.466;2023-03-01T10:28:42;1.40;;;1.40;;
10096;SDS011;5087;42.662;23.466;2023-03-01T10:31:22;1.70;;;1.70;;
10096;SDS011;5087;42.662;23.466;2023-03-01T10:33:54;1.63;;;1.63;;
10096;SDS011;5087;42.662;23.466;2023-03-01T10:36:24;1.50;;;1.50;;
10096;SDS011;5087;42.662;23.466;2023-03-01T10:38:53;2.27;;;2.17;;
10096;SDS011;5087;42.662;23.466;2023-03-01T10:41:22;2.07;;;2.07;;
10096;SDS011;5087;42.662;23.466;2023-03-01T10:43:53;1.50;;;1.50;;
10096;SDS011;5087;42.662;23.466;2023-03-01T10:46:23;1.30;;;1.30;;
10096;SDS011;5087;42.662;23.466;2023-03-01T10:51:44;1.30;;;1.30;;
10096;SDS011;5087;42.662;23.466;2023-03-01T10:54:18;1.40;;;1.40;;
10096;SDS011;5087;42.662;23.466;2023-03-01T10:56:48;1.30;;;1.30;;
10096;SDS011;5087;42.662;23.466;2023-03-01T10:59:25;1.60;;;1.60;;
10096;SDS011;5087;42.662;23.466;2023-03-01T11:02:02;1.30;;;1.30;;
10096;SDS011;5087;42.662;23.466;2023-03-01T11:04:52;1.30;;;1.30;;
10096;SDS011;5087;42.662;23.466;2023-03-01T11:07:24;1.50;;;1.50;;
10096;SDS011;5087;42.662;23.466;2023-03-01T11:09:55;1.17;;;1.17;;
10096;SDS011;5087;42.662;23.466;2023-03-01T11:12:22;0.80;;;0.80;;
10096;SDS011;5087;42.662;23.466;2023-03-01T11:14:53;1.30;;;1.30;;
10096;SDS011;5087;42.662;23.466;2023-03-01T11:17:21;0.90;;;0.90;;
10096;SDS011;5087;42.662;23.466;2023-03-01T11:19:59;0.80;;;0.80;;
10096;SDS011;5087;42.662;23.466;2023-03-01T11:22:33;1.10;;;1.10;;
10096;SDS011;5087;42.662;23.466;2023-03-01T11:25:02;1.50;;;1.50;;
10096;SDS011;5087;42.662;23.466;2023-03-01T11:27:35;0.90;;;0.90;;
10096;SDS011;5087;42.662;23.466;2023-03-01T11:30:07;1.10;;;1.10;;
10096;SDS011;5087;42.662;23.466;2023-03-01T11:32:47;0.90;;;0.90;;
10096;SDS011;5087;42.662;23.466;2023-03-01T11:35:22;1.30;;;1.30;;
10096;SDS011;5087;42.662;23.466;2023-03-01T11:37:55;1.10;;;1.10;;
10096;SDS011;5087;42.662;23.466;2023-03-01T11:40:30;1.00;;;1.00;;
10096;SDS011;5087;42.662;23.466;2023-03-01T11:43:12;0.83;;;0.83;;
10096;SDS011;5087;42.662;23.466;2023-03-01T11:45:50;1.00;;;1.00;;
10096;SDS011;5087;42.662;23.466;2023-03-01T11:48:33;1.20;;;1.20;;
10096;SDS011;5087;42.662;23.466;2023-03-01T11:51:12;1.30;;;1.30;;
10096;SDS011;5087;42.662;23.466;2023-03-01T11:54:01;1.20;;;1.20;;
10096;SDS011;5087;42.662;23.466;2023-03-01T11:56:38;1.00;;;1.00;;
10096;SDS011;5087;42.662;23.466;2023-03-01T12:02:16;0.90;;;0.90;;
10096;SDS011;5087;42.662;23.466;2023-03-01T12:08:10;1.10;;;1.10;;
10096;SDS011;5087;42.662;23.466;2023-03-01T12:10:45;1.27;;;1.27;;
10096;SDS011;5087;42.662;23.466;2023-03-01T12:16:36;1.30;;;1.30;;
10096;SDS011;5087;42.662;23.466;2023-03-01T12:19:30;1.40;;;1.40;;
10096;SDS011;5087;42.662;23.466;2023-03-01T12:22:11;1.30;;;1.30;;
10096;SDS011;5087;42.662;23.466;2023-03-01T12:25:03;1.70;;;1.70;;
10096;SDS011;5087;42.662;23.466;2023-03-01T12:30:55;1.30;;;1.30;;
10096;SDS011;5087;42.662;23.466;2023-03-01T12:33:43;1.20;;;1.20;;
10096;SDS011;5087;42.662;23.466;2023-03-01T12:36:29;1.10;;;1.10;;
10096;SDS011;5087;42.662;23.466;2023-03-01T12:39:08;1.10;;;1.10;;
10096;SDS011;5087;42.662;23.466;2023-03-01T12:41:52;1.00;;;1.00;;
10096;SDS011;5087;42.662;23.466;2023-03-01T12:44:42;1.00;;;1.00;;
10096;SDS011;5087;42.662;23.466;2023-03-01T12:47:39;1.00;;;1.00;;
10096;SDS011;5087;42.662;23.466;2023-03-01T12:50:18;0.80;;;0.80;;
10096;SDS011;5087;42.662;23.466;2023-03-01T12:52:51;1.27;;;1.23;;
10096;SDS011;5087;42.662;23.466;2023-03-01T12:55:26;0.80;;;0.80;;
10096;SDS011;5087;42.662;23.466;2023-03-01T12:58:01;0.67;;;0.67;;
10096;SDS011;5087;42.662;23.466;2023-03-01T13:00:37;1.00;;;1.00;;
10096;SDS011;5087;42.662;23.466;2023-03-01T13:03:15;0.70;;;0.70;;
10096;SDS011;5087;42.662;23.466;2023-03-01T13:05:55;0.80;;;0.80;;
10096;SDS011;5087;42.662;23.466;2023-03-01T13:08:38;0.63;;;0.63;;
10096;SDS011;5087;42.662;23.466;2023-03-01T13:11:14;0.70;;;0.70;;
10096;SDS011;5087;42.662;23.466;2023-03-01T13:13:45;0.60;;;0.60;;
10096;SDS011;5087;42.662;23.466;2023-03-01T13:16:21;0.60;;;0.60;;
10096;SDS011;5087;42.662;23.466;2023-03-01T13:19:09;0.60;;;0.60;;
10096;SDS011;5087;42.662;23.466;2023-03-01T13:21:44;0.70;;;0.70;;
10096;SDS011;5087;42.662;23.466;2023-03-01T13:24:28;0.60;;;0.60;;
10096;SDS011;5087;42.662;23.466;2023-03-01T13:27:24;0.50;;;0.50;;
10096;SDS011;5087;42.662;23.466;2023-03-01T13:29:55;0.30;;;0.30;;
10096;SDS011;5087;42.662;23.466;2023-03-01T13:32:25;0.40;;;0.40;;
10096;SDS011;5087;42.662;23.466;2023-03-01T13:34:55;0.40;;;0.40;;
10096;SDS011;5087;42.662;23.466;2023-03-01T13:37:34;0.90;;;0.90;;
10096;SDS011;5087;42.662;23.466;2023-03-01T13:46:01;0.40;;;0.40;;
10096;SDS011;5087;42.662;23.466;2023-03-01T13:48:36;0.40;;;0.40;;
10096;SDS011;5087;42.662;23.466;2023-03-01T13:51:06;0.40;;;0.40;;
10096;SDS011;5087;42.662;23.466;2023-03-01T13:53:37;0.40;;;0.40;;
10096;SDS011;5087;42.662;23.466;2023-03-01T13:56:09;0.30;;;0.30;;
10096;SDS011;5087;42.662;23.466;2023-03-01T13:58:46;0.30;;;0.30;;
10096;SDS011;5087;42.662;23.466;2023-03-01T14:01:21;5.30;;;1.07;;
10096;SDS011;5087;42.662;23.466;2023-03-01T14:03:50;1.87;;;1.77;;
10096;SDS011;5087;42.662;23.466;2023-03-01T14:06:19;0.20;;;0.20;;
10096;SDS011;5087;42.662;23.466;2023-03-01T14:08:49;0.30;;;0.30;;
10096;SDS011;5087;42.662;23.466;2023-03-01T14:14:43;0.47;;;0.47;;
10096;SDS011;5087;42.662;23.466;2023-03-01T14:20:17;0.40;;;0.40;;
10096;SDS011;5087;42.662;23.466;2023-03-01T14:22:47;0.30;;;0.30;;
10096;SDS011;5087;42.662;23.466;2023-03-01T14:25:20;0.40;;;0.40;;
10096;SDS011;5087;42.662;23.466;2023-03-01T14:27:56;0.30;;;0.30;;
10096;SDS011;5087;42.662;23.466;2023-03-01T14:30:30;3.33;;;2.77;;
10096;SDS011;5087;42.662;23.466;2023-03-01T14:33:04;1.93;;;1.70;;
10096;SDS011;5087;42.662;23.466;2023-03-01T14:35:33;0.30;;;0.30;;
10096;SDS011;5087;42.662;23.466;2023-03-01T14:38:02;0.30;;;0.30;;
10096;SDS011;5087;42.662;23.466;2023-03-01T14:40:31;0.33;;;0.33;;
10096;SDS011;5087;42.662;23.466;2023-03-01T14:43:08;0.30;;;0.30;;
10096;SDS011;5087;42.662;23.466;2023-03-01T14:45:38;2.63;;;0.77;;
10096;SDS011;5087;42.662;23.466;2023-03-01T14:48:06;0.20;;;0.20;;
10096;SDS011;5087;42.662;23.466;2023-03-01T14:50:34;0.20;;;0.20;;
10096;SDS011;5087;42.662;23.466;2023-03-01T14:53:06;0.20;;;0.20;;
10096;SDS011;5087;42.662;23.466;2023-03-01T14:55:44;0.30;;;0.30;;
10096;SDS011;5087;42.662;23.466;2023-03-01T14:58:17;0.20;;;0.20;;
10096;SDS011;5087;42.662;23.466;2023-03-01T15:00:49;0.20;;;0.20;;
10096;SDS011;5087;42.662;23.466;2023-03-01T15:03:26;0.20;;;0.20;;
10096;SDS011;5087;42.662;23.466;2023-03-01T15:05:57;0.20;;;0.20;;
10096;SDS011;5087;42.662;23.466;2023-03-01T15:08:27;0.40;;;0.40;;
10096;SDS011;5087;42.662;23.466;2023-03-01T15:11:00;0.53;;;0.53;;
10096;SDS011;5087;42.662;23.466;2023-03-01T15:13:32;0.20;;;0.20;;
10096;SDS011;5087;42.662;23.466;2023-03-01T15:16:12;2.40;;;2.30;;
10096;SDS011;5087;42.662;23.466;2023-03-01T15:18:43;0.20;;;0.20;;
10096;SDS011;5087;42.662;23.466;2023-03-01T15:21:17;0.60;;;0.60;;
10096;SDS011;5087;42.662;23.466;2023-03-01T15:23:48;0.20;;;0.20;;
10096;SDS011;5087;42.662;23.466;2023-03-01T15:26:21;6.60;;;2.57;;
10096;SDS011;5087;42.662;23.466;2023-03-01T15:28:51;0.20;;;0.20;;
10096;SDS011;5087;42.662;23.466;2023-03-01T15:31:25;0.10;;;0.10;;
10096;SDS011;5087;42.662;23.466;2023-03-01T15:34:07;0.40;;;0.40;;
10096;SDS011;5087;42.662;23.466;2023-03-01T15:36:41;0.10;;;0.10;;
10096;SDS011;5087;42.662;23.466;2023-03-01T15:39:23;0.30;;;0.30;;
10096;SDS011;5087;42.662;23.466;2023-03-01T15:42:03;0.40;;;0.40;;
10096;SDS011;5087;42.662;23.466;2023-03-01T15:44:33;0.30;;;0.30;;
10096;SDS011;5087;42.662;23.466;2023-03-01T15:47:03;0.20;;;0.20;;
10096;SDS011;5087;42.662;23.466;2023-03-01T15:49:36;0.63;;;0.63;;
10096;SDS011;5087;42.662;23.466;2023-03-01T15:52:10;0.20;;;0.20;;
10096;SDS011;5087;42.662;23.466;2023-03-01T15:54:40;0.30;;;0.30;;
10096;SDS011;5087;42.662;23.466;2023-03-01T15:57:09;0.30;;;0.30;;
10096;SDS011;5087;42.662;23.466;2023-03-01T15:59:41;1.43;;;1.37;;
10096;SDS011;5087;42.662;23.466;2023-03-01T16:02:11;0.77;;;0.43;;
10096;SDS011;5087;42.662;23.466;2023-03-01T16:04:39;0.30;;;0.30;;
10096;SDS011;5087;42.662;23.466;2023-03-01T16:07:11;0.20;;;0.20;;
10096;SDS011;5087;42.662;23.466;2023-03-01T16:09:42;0.30;;;0.30;;
10096;SDS011;5087;42.662;23.466;2023-03-01T16:12:10;0.40;;;0.40;;
10096;SDS011;5087;42.662;23.466;2023-03-01T16:14:41;1.13;;;1.13;;
10096;SDS011;5087;42.662;23.466;2023-03-01T16:17:08;0.50;;;0.50;;
10096;SDS011;5087;42.662;23.466;2023-03-01T16:19:38;0.23;;;0.23;;